ACA7249 KORD-CYUL
Flight info
| Callsign | ACA7249 |
|---|---|
| Flight time | N/A |
| Altitude | 41000 |
| Route | EBAKE DCT WISMO DCT POSTS DCT PADDE DCT SVM Q951 SANIN DCT MIGLO HABBS7 |
| Aircraft | B763/H-SDE3FGHIM3RWXY/LB1 |
Departure
| Time | N/A |
|---|---|
| Airport | Chicago O'Hare International Airport (KORD) |
Arrival
| Time | 2026-05-05 19:13 |
|---|---|
| Airport | Montreal / Pierre Elliott Trudeau International Airport (CYUL) |
| Time | Latitude | Longitude | Altitude | Speed | Heading |
|---|---|---|---|---|---|
| 2026-05-05 18:29 | 43.70307 | -79.13442 | 40883 ft | 532 kts | 72° |
| 2026-05-05 18:30 | 43.72548 | -79.03657 | 40912 ft | 535 kts | 72° |
| 2026-05-05 18:30 | 43.74763 | -78.93923 | 40863 ft | 533 kts | 72° |
| 2026-05-05 18:31 | 43.76978 | -78.84143 | 40844 ft | 536 kts | 72° |
| 2026-05-05 18:31 | 43.79192 | -78.74326 | 40853 ft | 536 kts | 72° |
| 2026-05-05 18:32 | 43.81390 | -78.64544 | 40862 ft | 535 kts | 72° |
| 2026-05-05 18:32 | 43.83586 | -78.54717 | 40873 ft | 538 kts | 72° |
| 2026-05-05 18:33 | 43.85782 | -78.44842 | 40864 ft | 536 kts | 72° |
| 2026-05-05 18:33 | 43.87953 | -78.35033 | 40873 ft | 537 kts | 71° |
| 2026-05-05 18:34 | 43.90133 | -78.25148 | 40874 ft | 537 kts | 72° |
| 2026-05-05 18:34 | 43.92293 | -78.15308 | 40890 ft | 537 kts | 73° |
| 2026-05-05 18:35 | 43.94446 | -78.05448 | 40873 ft | 536 kts | 72° |
| 2026-05-05 18:35 | 43.96608 | -77.95505 | 40863 ft | 538 kts | 72° |
| 2026-05-05 18:36 | 43.98751 | -77.85595 | 40871 ft | 539 kts | 72° |
| 2026-05-05 18:36 | 44.00887 | -77.75687 | 40881 ft | 537 kts | 72° |
| 2026-05-05 18:37 | 44.03001 | -77.65813 | 40874 ft | 535 kts | 72° |
| 2026-05-05 18:37 | 44.05104 | -77.55956 | 40871 ft | 536 kts | 72° |
| 2026-05-05 18:38 | 44.07278 | -77.46027 | 40855 ft | 537 kts | 68° |
| 2026-05-05 18:38 | 44.10731 | -77.36941 | 40850 ft | 531 kts | 53° |
| 2026-05-05 18:39 | 44.14715 | -77.28369 | 40845 ft | 530 kts | 54° |
| 2026-05-05 18:39 | 44.18710 | -77.19746 | 40833 ft | 533 kts | 55° |
| 2026-05-05 18:40 | 44.22709 | -77.11088 | 40817 ft | 532 kts | 54° |
| 2026-05-05 18:40 | 44.26668 | -77.02490 | 40793 ft | 530 kts | 55° |
| 2026-05-05 18:41 | 44.30657 | -76.93804 | 40820 ft | 533 kts | 55° |
| 2026-05-05 18:41 | 44.34620 | -76.85143 | 40824 ft | 533 kts | 55° |
| 2026-05-05 18:42 | 44.38609 | -76.76405 | 40819 ft | 534 kts | 55° |
| 2026-05-05 18:42 | 44.42571 | -76.67697 | 40840 ft | 534 kts | 55° |
| 2026-05-05 18:43 | 44.46533 | -76.58965 | 40853 ft | 533 kts | 55° |
| 2026-05-05 18:43 | 44.50496 | -76.50202 | 40725 ft | 526 kts | 55° |
| 2026-05-05 18:44 | 44.52407 | -76.45961 | 40754 ft | 508 kts | 56° |
| 2026-05-05 18:44 | 44.54245 | -76.41882 | 40380 ft | 500 kts | 55° |
| 2026-05-05 18:44 | 44.56115 | -76.37728 | 39470 ft | 505 kts | 55° |
| 2026-05-05 18:44 | 44.57983 | -76.33573 | 38607 ft | 505 kts | 56° |
| 2026-05-05 18:45 | 44.59824 | -76.29464 | 37654 ft | 506 kts | 55° |
| 2026-05-05 18:45 | 44.61696 | -76.25284 | 36662 ft | 505 kts | 55° |
| 2026-05-05 18:45 | 44.63451 | -76.21027 | 35661 ft | 511 kts | 62° |
| 2026-05-05 18:45 | 44.64871 | -76.16515 | 34795 ft | 510 kts | 65° |
| 2026-05-05 18:46 | 44.66244 | -76.11973 | 33976 ft | 506 kts | 66° |
| 2026-05-05 18:46 | 44.67612 | -76.07394 | 33183 ft | 518 kts | 66° |
| 2026-05-05 18:46 | 44.69017 | -76.02651 | 32573 ft | 526 kts | 66° |
| 2026-05-05 18:46 | 44.70402 | -75.97930 | 31916 ft | 534 kts | 67° |
| 2026-05-05 18:47 | 44.71718 | -75.93056 | 31232 ft | 531 kts | 69° |
| 2026-05-05 18:47 | 44.72996 | -75.88260 | 30617 ft | 524 kts | 69° |
| 2026-05-05 18:47 | 44.74276 | -75.83455 | 30013 ft | 524 kts | 68° |
| 2026-05-05 18:47 | 44.75547 | -75.78688 | 29422 ft | 526 kts | 69° |
| 2026-05-05 18:48 | 44.76822 | -75.73894 | 28829 ft | 524 kts | 69° |
| 2026-05-05 18:48 | 44.78083 | -75.69145 | 28262 ft | 516 kts | 69° |
| 2026-05-05 18:48 | 44.79327 | -75.64447 | 27694 ft | 511 kts | 70° |
| 2026-05-05 18:48 | 44.80557 | -75.59787 | 27133 ft | 507 kts | 69° |
| 2026-05-05 18:49 | 44.81775 | -75.55174 | 26568 ft | 504 kts | 69° |
| 2026-05-05 18:49 | 44.82983 | -75.50582 | 26014 ft | 499 kts | 70° |
| 2026-05-05 18:49 | 44.84185 | -75.46049 | 25460 ft | 494 kts | 69° |
| 2026-05-05 18:49 | 44.85443 | -75.41637 | 24883 ft | 489 kts | 68° |
| 2026-05-05 18:50 | 44.86706 | -75.37171 | 24301 ft | 485 kts | 69° |
| 2026-05-05 18:50 | 44.87943 | -75.32808 | 23734 ft | 482 kts | 70° |
| 2026-05-05 18:50 | 44.89171 | -75.28458 | 23239 ft | 476 kts | 70° |
| 2026-05-05 18:50 | 44.90377 | -75.24171 | 22771 ft | 472 kts | 70° |
| 2026-05-05 18:51 | 44.91590 | -75.19862 | 22292 ft | 471 kts | 70° |
| 2026-05-05 18:51 | 44.92786 | -75.15592 | 21788 ft | 470 kts | 70° |
| 2026-05-05 18:51 | 44.93985 | -75.11321 | 21278 ft | 467 kts | 70° |
| 2026-05-05 18:51 | 44.95168 | -75.07089 | 20761 ft | 463 kts | 70° |
| 2026-05-05 18:52 | 44.96325 | -75.02943 | 20247 ft | 460 kts | 70° |
| 2026-05-05 18:52 | 44.97500 | -74.98731 | 19714 ft | 456 kts | 70° |
| 2026-05-05 18:52 | 44.98730 | -74.94655 | 19240 ft | 451 kts | 64° |
| 2026-05-05 18:52 | 45.00251 | -74.90830 | 18725 ft | 450 kts | 62° |
| 2026-05-05 18:53 | 45.01773 | -74.86971 | 18210 ft | 449 kts | 61° |
| 2026-05-05 18:53 | 45.03295 | -74.83152 | 17693 ft | 446 kts | 61° |
| 2026-05-05 18:53 | 45.04805 | -74.79349 | 17177 ft | 443 kts | 61° |
| 2026-05-05 18:53 | 45.06301 | -74.75585 | 16692 ft | 439 kts | 61° |
| 2026-05-05 18:54 | 45.07778 | -74.71860 | 16218 ft | 437 kts | 61° |
| 2026-05-05 18:54 | 45.09257 | -74.68128 | 15727 ft | 433 kts | 61° |
| 2026-05-05 18:54 | 45.10719 | -74.64434 | 15186 ft | 431 kts | 61° |
| 2026-05-05 18:54 | 45.12180 | -74.60789 | 14843 ft | 423 kts | 59° |
| 2026-05-05 18:55 | 45.13742 | -74.57252 | 14297 ft | 429 kts | 57° |
| 2026-05-05 18:55 | 45.15297 | -74.53702 | 13745 ft | 426 kts | 57° |
| 2026-05-05 18:55 | 45.16847 | -74.50169 | 13229 ft | 423 kts | 58° |
| 2026-05-05 18:55 | 45.18393 | -74.46634 | 12740 ft | 418 kts | 58° |
| 2026-05-05 18:56 | 45.19908 | -74.43155 | 12368 ft | 411 kts | 57° |
| 2026-05-05 18:56 | 45.21391 | -74.39746 | 11835 ft | 409 kts | 58° |
| 2026-05-05 18:56 | 45.22865 | -74.36334 | 11370 ft | 404 kts | 57° |
| 2026-05-05 18:56 | 45.24319 | -74.32974 | 10934 ft | 399 kts | 58° |
| 2026-05-05 18:57 | 45.25757 | -74.29643 | 10536 ft | 396 kts | 58° |
| 2026-05-05 18:57 | 45.27198 | -74.26303 | 10250 ft | 390 kts | 58° |
| 2026-05-05 18:57 | 45.28583 | -74.23085 | 10224 ft | 374 kts | 58° |
| 2026-05-05 18:57 | 45.29894 | -74.20037 | 10210 ft | 359 kts | 58° |
| 2026-05-05 18:58 | 45.31176 | -74.17054 | 10178 ft | 346 kts | 58° |
| 2026-05-05 18:58 | 45.32423 | -74.14151 | 9968 ft | 342 kts | 58° |
| 2026-05-05 18:58 | 45.33646 | -74.11299 | 9675 ft | 341 kts | 58° |
| 2026-05-05 18:58 | 45.34875 | -74.08432 | 9422 ft | 338 kts | 58° |
| 2026-05-05 18:59 | 45.36170 | -74.05715 | 9289 ft | 329 kts | 45° |
| 2026-05-05 18:59 | 45.37808 | -74.03458 | 8978 ft | 329 kts | 39° |
| 2026-05-05 18:59 | 45.39481 | -74.01252 | 8557 ft | 333 kts | 40° |
| 2026-05-05 18:59 | 45.41195 | -73.99004 | 8106 ft | 337 kts | 40° |
| 2026-05-05 19:00 | 45.42875 | -73.96802 | 7907 ft | 323 kts | 39° |
| 2026-05-05 19:00 | 45.44534 | -73.94638 | 7438 ft | 318 kts | 39° |
| 2026-05-05 19:00 | 45.46143 | -73.92541 | 7085 ft | 315 kts | 39° |
| 2026-05-05 19:00 | 45.47741 | -73.90459 | 6700 ft | 311 kts | 39° |
| 2026-05-05 19:01 | 45.49317 | -73.88402 | 6342 ft | 308 kts | 39° |
| 2026-05-05 19:01 | 45.50898 | -73.86337 | 5980 ft | 307 kts | 39° |
| 2026-05-05 19:01 | 45.52462 | -73.84295 | 5627 ft | 305 kts | 39° |
| 2026-05-05 19:01 | 45.54026 | -73.82250 | 5266 ft | 302 kts | 39° |
| 2026-05-05 19:02 | 45.55564 | -73.80234 | 4914 ft | 300 kts | 39° |
| 2026-05-05 19:02 | 45.57077 | -73.78252 | 4570 ft | 296 kts | 39° |
| 2026-05-05 19:02 | 45.58583 | -73.76278 | 4232 ft | 294 kts | 39° |
| 2026-05-05 19:02 | 45.60088 | -73.74303 | 4002 ft | 286 kts | 40° |
| 2026-05-05 19:03 | 45.61494 | -73.72452 | 3987 ft | 268 kts | 39° |
| 2026-05-05 19:03 | 45.62834 | -73.70691 | 3997 ft | 258 kts | 39° |
| 2026-05-05 19:03 | 45.64160 | -73.68950 | 4013 ft | 262 kts | 39° |
| 2026-05-05 19:03 | 45.65503 | -73.67185 | 4010 ft | 263 kts | 39° |
| 2026-05-05 19:04 | 45.66837 | -73.65429 | 4006 ft | 262 kts | 39° |
| 2026-05-05 19:04 | 45.68187 | -73.63650 | 4006 ft | 262 kts | 39° |
| 2026-05-05 19:04 | 45.69533 | -73.61877 | 3901 ft | 266 kts | 39° |
| 2026-05-05 19:04 | 45.70873 | -73.60109 | 3802 ft | 260 kts | 39° |
| 2026-05-05 19:05 | 45.72104 | -73.58221 | 3610 ft | 256 kts | 60° |
| 2026-05-05 19:05 | 45.72572 | -73.55929 | 3718 ft | 237 kts | 96° |
| 2026-05-05 19:05 | 45.72149 | -73.53786 | 3700 ft | 213 kts | 135° |
| 2026-05-05 19:05 | 45.71093 | -73.52593 | 3701 ft | 182 kts | 175° |
| 2026-05-05 19:06 | 45.69919 | -73.52497 | 3702 ft | 163 kts | 194° |
| 2026-05-05 19:06 | 45.68789 | -73.52591 | 3683 ft | 163 kts | 192° |
| 2026-05-05 19:06 | 45.67651 | -73.52669 | 3694 ft | 164 kts | 192° |
| 2026-05-05 19:06 | 45.66510 | -73.52748 | 3695 ft | 164 kts | 192° |
| 2026-05-05 19:07 | 45.65365 | -73.52827 | 3692 ft | 164 kts | 192° |
| 2026-05-05 19:07 | 45.64615 | -73.52871 | 3696 ft | 164 kts | 190° |
| 2026-05-05 19:07 | 45.63233 | -73.53397 | 3723 ft | 147 kts | 229° |
| 2026-05-05 19:07 | 45.62558 | -73.54483 | 3764 ft | 150 kts | 230° |
| 2026-05-05 19:08 | 45.61833 | -73.55566 | 3668 ft | 148 kts | 229° |
| 2026-05-05 19:08 | 45.61116 | -73.56596 | 3521 ft | 146 kts | 228° |
| 2026-05-05 19:08 | 45.60395 | -73.57613 | 3337 ft | 148 kts | 227° |
| 2026-05-05 19:08 | 45.59650 | -73.58643 | 3141 ft | 149 kts | 227° |
| 2026-05-05 19:09 | 45.58901 | -73.59663 | 2943 ft | 150 kts | 227° |
| 2026-05-05 19:09 | 45.58129 | -73.60704 | 2742 ft | 153 kts | 227° |
| 2026-05-05 19:09 | 45.57361 | -73.61729 | 2536 ft | 152 kts | 226° |
| 2026-05-05 19:09 | 45.56585 | -73.62759 | 2327 ft | 153 kts | 226° |
| 2026-05-05 19:10 | 45.55801 | -73.63797 | 2125 ft | 154 kts | 226° |
| 2026-05-05 19:10 | 45.55014 | -73.64831 | 1919 ft | 153 kts | 225° |
| 2026-05-05 19:10 | 45.54232 | -73.65860 | 1712 ft | 152 kts | 226° |
| 2026-05-05 19:10 | 45.53452 | -73.66888 | 1508 ft | 153 kts | 225° |
| 2026-05-05 19:11 | 45.52673 | -73.67909 | 1297 ft | 154 kts | 224° |
| 2026-05-05 19:11 | 45.51879 | -73.68951 | 1095 ft | 153 kts | 224° |
| 2026-05-05 19:11 | 45.51115 | -73.69951 | 885 ft | 148 kts | 224° |
| 2026-05-05 19:11 | 45.50396 | -73.70889 | 667 ft | 133 kts | 225° |
| 2026-05-05 19:12 | 45.49730 | -73.71765 | 516 ft | 133 kts | 223° |
| 2026-05-05 19:12 | 45.49039 | -73.72669 | 358 ft | 135 kts | 223° |
| 2026-05-05 19:12 | 45.48350 | -73.73570 | 184 ft | 135 kts | 223° |
| 2026-05-05 19:12 | 45.47668 | -73.74466 | 124 ft | 122 kts | 223° |
| 2026-05-05 19:13 | 45.47252 | -73.75007 | 118 ft | 48 kts | 218° |
| 2026-05-05 19:13 | 45.46980 | -73.75054 | 116 ft | 41 kts | 177° |
| 2026-05-05 19:13 | 45.46706 | -73.75028 | 114 ft | 35 kts | 178° |
| 2026-05-05 19:13 | 45.46474 | -73.75005 | 113 ft | 29 kts | 178° |
| 2026-05-05 19:14 | 45.46334 | -73.75045 | 113 ft | 16 kts | 225° |
| 2026-05-05 19:14 | 45.46302 | -73.75188 | 113 ft | 14 kts | 263° |
| 2026-05-05 19:14 | 45.46287 | -73.75423 | 113 ft | 24 kts | 266° |
| 2026-05-05 19:14 | 45.46298 | -73.75557 | 113 ft | 8 kts | 310° |
| 2026-05-05 19:15 | 45.46359 | -73.75557 | 113 ft | 12 kts | 21° |
| 2026-05-05 19:15 | 45.46402 | -73.75542 | 114 ft | 0 kts | 359° |